Time;durP1;ratioP1;P1;durP2;ratioP2;P2;SDS_P1;SDS_P2;PMS_P1;PMS_P2;Temp;Humidity;BMP_temperature;BMP_pressure;BME280_temperature;BME280_humidity;BME280_pressure;Samples;Min_cycle;Max_cycle;Signal;HPM_P1;HPM_P2
2022/01/20 00:00:16;;;;;;;21.10;13.95;;;3.30;99.90;;;;;;5032382;28;20022;-55
2022/01/20 00:02:43;;;;;;;28.75;14.43;;;3.40;99.90;;;;;;5032053;28;20036;-53
2022/01/20 00:08:07;;;;;;;18.08;13.25;;;3.40;99.90;;;;;;5031842;28;20072;-54
2022/01/20 00:27:04;;;;;;;16.23;11.10;;;3.60;99.90;;;;;;5032898;28;20080;-55
2022/01/20 00:29:33;;;;;;;17.52;10.95;;;3.60;99.90;;;;;;5032853;28;20041;-55
2022/01/20 00:34:52;;;;;;;16.95;10.88;;;3.60;99.90;;;;;;5032834;28;20037;-54
2022/01/20 00:37:16;;;;;;;14.98;10.85;;;3.60;99.90;;;;;;5032602;28;20364;-52
2022/01/20 00:40:10;;;;;;;18.20;12.43;;;3.60;99.90;;;;;;5032337;28;20025;-52
2022/01/20 00:42:36;;;;;;;15.82;11.60;;;3.60;99.90;;;;;;5032472;28;20030;-53
2022/01/20 00:45:02;;;;;;;15.95;10.57;;;3.60;99.90;;;;;;5032049;28;20025;-53
2022/01/20 00:47:29;;;;;;;15.73;11.70;;;3.60;99.90;;;;;;5030623;28;20031;-53
2022/01/20 00:49:55;;;;;;;18.33;10.40;;;3.60;99.90;;;;;;5031621;28;20138;-56
2022/01/20 00:52:21;;;;;;;15.40;12.00;;;3.60;99.90;;;;;;5032098;28;20049;-55
2022/01/20 00:54:46;;;;;;;16.30;11.13;;;3.50;99.90;;;;;;5031312;28;20024;-54
2022/01/20 00:57:12;;;;;;;18.95;11.60;;;3.60;99.90;;;;;;5032281;28;20051;-56
2022/01/20 00:59:39;;;;;;;16.25;10.30;;;3.60;99.90;;;;;;5031745;28;20025;-52
2022/01/20 01:02:07;;;;;;;20.27;11.75;;;3.60;99.90;;;;;;5032250;28;20439;-52
2022/01/20 01:04:33;;;;;;;12.70;9.25;;;3.60;99.90;;;;;;5031746;28;20431;-54
2022/01/20 01:09:44;;;;;;;;;;;3.60;99.90;;;;;;5032379;28;20570;-53
2022/01/20 01:12:16;;;;;;;17.00;8.88;;;3.60;99.90;;;;;;5030700;28;20251;-57
2022/01/20 01:14:47;;;;;;;11.60;8.48;;;3.60;99.90;;;;;;5031354;28;20463;-56
2022/01/20 01:21:06;;;;;;;13.20;9.80;;;3.60;99.90;;;;;;5031242;28;20426;-52
2022/01/20 01:22:33;;;;;;;11.40;8.75;;;3.60;99.90;;;;;;5034792;28;20029;-54
2022/01/20 01:25:01;;;;;;;15.40;9.95;;;3.50;99.90;;;;;;5031258;28;20022;-56
2022/01/20 01:27:33;;;;;;;15.55;11.43;;;3.60;99.90;;;;;;5031211;28;20109;-53
2022/01/20 01:35:13;;;;;;;20.65;9.00;;;3.50;99.90;;;;;;5031626;28;20028;-56
2022/01/20 01:40:07;;;;;;;10.80;7.90;;;3.50;99.90;;;;;;5031646;28;20035;-55
2022/01/20 01:42:43;;;;;;;13.00;9.27;;;3.60;99.90;;;;;;5031425;28;20141;-52
2022/01/20 01:45:13;;;;;;;12.80;8.70;;;3.60;99.90;;;;;;5031534;28;20101;-55
2022/01/20 01:47:39;;;;;;;15.93;8.95;;;3.50;99.90;;;;;;5031225;28;20365;-54
2022/01/20 01:50:06;;;;;;;13.13;8.98;;;3.50;99.90;;;;;;5031022;28;20029;-53
2022/01/20 01:52:32;;;;;;;13.50;10.32;;;3.50;99.90;;;;;;5031685;28;20049;-55
2022/01/20 01:54:57;;;;;;;19.77;11.15;;;3.50;99.90;;;;;;5031445;28;20094;-54
2022/01/20 01:57:25;;;;;;;14.77;9.55;;;3.50;99.90;;;;;;5030862;28;20465;-51
2022/01/20 01:59:51;;;;;;;12.68;9.13;;;3.50;99.90;;;;;;5031189;28;20022;-55
2022/01/20 02:02:16;;;;;;;14.30;9.23;;;3.40;99.90;;;;;;5031106;28;20112;-55
2022/01/20 02:04:42;;;;;;;13.88;8.98;;;3.40;99.90;;;;;;5030683;28;20113;-52
2022/01/20 02:18:13;;;;;;;14.35;9.45;;;3.40;99.90;;;;;;5034734;28;20060;-55
2022/01/20 02:20:40;;;;;;;10.20;7.78;;;3.50;99.90;;;;;;5034884;28;20159;-53
2022/01/20 02:23:06;;;;;;;12.93;9.52;;;3.50;99.90;;;;;;5033457;28;20052;-56
2022/01/20 02:25:34;;;;;;;12.88;8.77;;;3.40;99.90;;;;;;5035273;28;20053;-53
2022/01/20 02:28:04;;;;;;;15.55;9.55;;;3.50;99.90;;;;;;5035141;28;20021;-55
2022/01/20 02:30:30;;;;;;;17.80;10.00;;;3.50;99.90;;;;;;5035085;28;20026;-56
2022/01/20 02:32:59;;;;;;;22.83;11.15;;;3.50;99.90;;;;;;5034955;28;20460;-55
2022/01/20 02:35:27;;;;;;;17.25;11.18;;;3.40;99.90;;;;;;5034398;28;20380;-56
2022/01/20 02:38:01;;;;;;;11.02;7.10;;;3.40;99.90;;;;;;5034566;28;20064;-54
2022/01/20 02:45:40;;;;;;;29.60;13.40;;;3.50;99.90;;;;;;5034597;28;20624;-54
2022/01/20 02:48:06;;;;;;;14.13;9.43;;;3.50;99.90;;;;;;5034224;28;20057;-53
2022/01/20 02:50:32;;;;;;;13.25;8.60;;;3.40;99.90;;;;;;5034417;28;20056;-52
2022/01/20 02:52:57;;;;;;;28.05;12.80;;;3.50;99.90;;;;;;5033089;28;20522;-52
2022/01/20 02:55:23;;;;;;;12.10;7.63;;;3.40;99.90;;;;;;5033255;28;20029;-55
2022/01/20 02:57:49;;;;;;;10.70;7.35;;;3.40;99.90;;;;;;5034051;28;20052;-54
2022/01/20 03:00:15;;;;;;;6.13;5.50;;;3.50;99.90;;;;;;5033938;28;20547;-55
2022/01/20 03:02:42;;;;;;;6.97;5.85;;;3.50;99.90;;;;;;5034173;28;20581;-56
2022/01/20 03:05:10;;;;;;;26.30;11.20;;;3.40;99.90;;;;;;5034023;28;20128;-56
2022/01/20 03:07:36;;;;;;;9.75;5.43;;;3.40;99.90;;;;;;5034455;28;20389;-53
2022/01/20 03:10:04;;;;;;;21.05;9.18;;;3.50;99.90;;;;;;5033691;28;20014;-56
2022/01/20 03:12:30;;;;;;;7.40;5.72;;;3.50;99.90;;;;;;5034325;28;20507;-54
2022/01/20 03:14:56;;;;;;;6.85;5.95;;;3.50;99.90;;;;;;5033625;28;20045;-55
2022/01/20 03:17:21;;;;;;;18.90;9.60;;;3.50;99.90;;;;;;5034262;28;20115;-54
2022/01/20 03:19:47;;;;;;;14.52;6.65;;;3.40;99.90;;;;;;5033787;28;20535;-54
2022/01/20 03:22:13;;;;;;;21.88;9.73;;;3.50;99.90;;;;;;5034124;28;20025;-55
2022/01/20 03:24:39;;;;;;;20.48;9.40;;;3.40;99.90;;;;;;5033871;28;20171;-53
2022/01/20 03:27:04;;;;;;;11.43;6.50;;;3.40;99.90;;;;;;5033977;28;20053;-54
2022/01/20 03:29:30;;;;;;;22.63;10.18;;;3.40;99.90;;;;;;5033826;28;20032;-51
2022/01/20 03:31:56;;;;;;;22.85;8.77;;;3.40;99.90;;;;;;5033794;28;20033;-54
2022/01/20 03:34:22;;;;;;;54.97;17.77;;;3.40;99.90;;;;;;5033781;28;20087;-54
2022/01/20 03:36:48;;;;;;;14.45;8.35;;;3.40;99.90;;;;;;5033833;28;20029;-56
2022/01/20 03:39:14;;;;;;;8.23;5.88;;;3.40;99.90;;;;;;5032420;28;20029;-55
2022/01/20 03:41:40;;;;;;;6.90;5.40;;;3.40;99.90;;;;;;5032407;28;20029;-56
2022/01/20 03:44:06;;;;;;;24.08;8.77;;;3.40;99.90;;;;;;5033769;28;20071;-54
2022/01/20 03:46:32;;;;;;;23.13;9.15;;;3.40;99.90;;;;;;5033687;28;20377;-53
2022/01/20 03:49:08;;;;;;;16.08;7.97;;;3.30;99.90;;;;;;5033591;28;20028;-56
2022/01/20 03:51:35;;;;;;;9.95;6.85;;;3.30;99.90;;;;;;5033535;28;20009;-55
2022/01/20 03:54:01;;;;;;;19.45;9.77;;;3.20;99.90;;;;;;5033456;28;20481;-54
2022/01/20 03:56:26;;;;;;;7.38;5.70;;;3.20;99.90;;;;;;5033523;28;20385;-55
2022/01/20 03:58:52;;;;;;;12.00;7.18;;;3.20;99.90;;;;;;5033371;28;20038;-53
2022/01/20 04:01:19;;;;;;;7.53;5.00;;;3.20;99.90;;;;;;5033450;28;20037;-52
2022/01/20 04:03:44;;;;;;;8.40;6.05;;;3.30;99.90;;;;;;5033194;28;20025;-55
2022/01/20 04:06:11;;;;;;;8.60;6.15;;;3.20;99.90;;;;;;5033374;28;20074;-55
2022/01/20 04:08:39;;;;;;;39.63;15.23;;;3.20;99.90;;;;;;5033153;28;20017;-53
2022/01/20 04:11:10;;;;;;;9.15;5.40;;;3.10;99.90;;;;;;5033132;28;20033;-53
2022/01/20 04:13:36;;;;;;;23.40;9.38;;;3.10;99.90;;;;;;5032908;28;20025;-52
2022/01/20 04:16:17;;;;;;;9.60;6.63;;;3.10;99.90;;;;;;5031599;28;20060;-54
2022/01/20 04:18:54;;;;;;;15.95;7.80;;;3.10;99.90;;;;;;5032885;28;20079;-54
2022/01/20 04:21:26;;;;;;;11.02;5.80;;;3.10;99.90;;;;;;5033187;28;20395;-53
2022/01/20 04:23:53;;;;;;;5.72;5.05;;;3.20;99.90;;;;;;5032716;28;20037;-52
2022/01/20 04:26:19;;;;;;;26.85;9.35;;;3.20;99.90;;;;;;5033122;28;20358;-55
2022/01/20 04:28:45;;;;;;;5.45;4.95;;;3.10;99.90;;;;;;5032682;28;20467;-55
2022/01/20 04:31:12;;;;;;;11.35;6.05;;;3.10;99.90;;;;;;5032497;28;20017;-51
2022/01/20 04:33:38;;;;;;;9.15;5.85;;;3.10;99.90;;;;;;5032658;28;20033;-56
2022/01/20 04:36:05;;;;;;;7.65;5.32;;;3.00;99.90;;;;;;5032714;28;20040;-54
2022/01/20 04:38:31;;;;;;;8.18;5.75;;;3.00;99.90;;;;;;5032704;28;20036;-52
2022/01/20 04:40:57;;;;;;;17.52;8.20;;;2.90;99.90;;;;;;5032455;28;20030;-53
2022/01/20 04:43:24;;;;;;;26.88;9.77;;;2.70;99.90;;;;;;5032509;28;20108;-52
2022/01/20 04:45:58;;;;;;;8.15;6.35;;;2.60;99.90;;;;;;5032324;28;20029;-54
2022/01/20 04:48:49;;;;;;;15.82;8.50;;;2.60;99.90;;;;;;5032552;28;20017;-53
2022/01/20 04:59:46;;;;;;;7.95;6.35;;;2.40;99.90;;;;;;5069341;28;20036;-53
2022/01/20 05:02:12;;;;;;;84.68;29.10;;;2.30;99.90;;;;;;5069443;28;20035;-53
2022/01/20 05:04:39;;;;;;;9.80;6.80;;;2.20;99.90;;;;;;5051585;28;20381;-56
2022/01/20 05:07:05;;;;;;;8.30;6.72;;;2.20;99.90;;;;;;5032407;28;20030;-52
2022/01/20 05:09:32;;;;;;;16.58;8.88;;;2.20;99.90;;;;;;5030919;28;20123;-51
2022/01/20 05:12:20;;;;;;;11.57;7.75;;;2.10;99.90;;;;;;5031905;28;20117;-53
2022/01/20 05:14:46;;;;;;;7.25;6.35;;;2.20;99.90;;;;;;5031485;28;20077;-51
2022/01/20 05:17:11;;;;;;;11.48;9.07;;;2.10;99.90;;;;;;5032107;28;20111;-55
2022/01/20 05:19:37;;;;;;;13.15;9.07;;;2.10;99.90;;;;;;5031784;28;20025;-52
2022/01/20 05:22:03;;;;;;;9.43;7.88;;;2.00;99.90;;;;;;5031961;28;20032;-52
2022/01/20 05:24:29;;;;;;;10.20;8.13;;;2.00;99.90;;;;;;5031899;28;20025;-55
2022/01/20 05:26:57;;;;;;;9.48;7.40;;;2.00;99.90;;;;;;5031774;28;20107;-54
2022/01/20 05:29:23;;;;;;;8.10;6.68;;;2.00;99.90;;;;;;5031733;28;20428;-53
2022/01/20 05:31:49;;;;;;;10.57;8.10;;;2.00;99.90;;;;;;5031667;28;20036;-55
2022/01/20 05:34:16;;;;;;;9.15;7.55;;;1.90;99.90;;;;;;5031816;28;20025;-53
2022/01/20 05:36:42;;;;;;;11.27;9.13;;;1.90;99.90;;;;;;5030319;28;20029;-55
2022/01/20 05:39:09;;;;;;;11.00;7.72;;;1.90;99.90;;;;;;5031868;28;20029;-53
2022/01/20 05:41:35;;;;;;;10.52;7.15;;;2.00;99.90;;;;;;5031644;28;20472;-55
2022/01/20 05:44:01;;;;;;;9.68;8.02;;;1.90;99.90;;;;;;5030638;28;20044;-55
2022/01/20 05:46:34;;;;;;;9.50;7.32;;;1.90;99.90;;;;;;5031683;28;20022;-51
2022/01/20 05:49:08;;;;;;;8.63;7.68;;;1.90;99.90;;;;;;5031546;28;20153;-53
2022/01/20 05:51:35;;;;;;;11.32;8.13;;;1.80;99.90;;;;;;5031400;28;20032;-56
2022/01/20 05:54:01;;;;;;;11.68;8.13;;;1.80;99.90;;;;;;5031413;28;20438;-54
2022/01/20 05:56:27;;;;;;;8.15;6.90;;;1.80;99.90;;;;;;5031582;28;20027;-53
2022/01/20 05:58:52;;;;;;;9.73;8.35;;;1.80;99.90;;;;;;5031247;28;20036;-54
2022/01/20 06:01:18;;;;;;;10.82;8.43;;;1.80;99.90;;;;;;5031924;28;20083;-55
2022/01/20 06:03:43;;;;;;;7.97;7.18;;;1.70;99.90;;;;;;5030506;28;20037;-52
2022/01/20 06:06:12;;;;;;;9.82;7.53;;;1.80;99.90;;;;;;5031296;28;20034;-54
2022/01/20 06:08:39;;;;;;;13.38;7.63;;;1.80;99.90;;;;;;5031169;28;20075;-54
2022/01/20 06:11:05;;;;;;;9.77;7.57;;;1.80;99.90;;;;;;5029329;28;20392;-52
2022/01/20 06:13:31;;;;;;;9.55;7.18;;;1.90;99.90;;;;;;5014058;28;20084;-53
2022/01/20 06:15:58;;;;;;;9.30;7.72;;;1.80;99.90;;;;;;5011068;28;20544;-53
2022/01/20 06:18:24;;;;;;;7.03;6.15;;;1.80;99.90;;;;;;5017936;28;20025;-52
2022/01/20 06:20:50;;;;;;;11.70;8.90;;;1.90;99.90;;;;;;5031064;28;20475;-54
2022/01/20 06:23:16;;;;;;;15.02;10.88;;;1.80;99.90;;;;;;5030983;28;20026;-54
2022/01/20 06:25:42;;;;;;;10.18;7.47;;;1.70;99.90;;;;;;5030777;28;20385;-53
2022/01/20 06:28:08;;;;;;;7.45;6.75;;;1.70;99.90;;;;;;5031226;28;20033;-52
2022/01/20 06:30:34;;;;;;;9.35;7.38;;;1.70;99.90;;;;;;5030771;28;20029;-57
2022/01/20 06:33:01;;;;;;;9.80;7.80;;;1.70;99.90;;;;;;5029820;28;20030;-55
2022/01/20 06:35:27;;;;;;;11.52;7.47;;;1.70;99.90;;;;;;5030952;28;20022;-54
2022/01/20 06:37:53;;;;;;;11.05;7.35;;;1.60;99.90;;;;;;5030791;28;20029;-55
2022/01/20 06:40:19;;;;;;;10.02;7.43;;;1.70;99.90;;;;;;5031033;28;20443;-57
2022/01/20 06:42:44;;;;;;;10.98;8.00;;;1.70;99.90;;;;;;5030791;28;20097;-53
2022/01/20 06:45:14;;;;;;;10.55;7.43;;;1.70;99.90;;;;;;5031023;28;20067;-56
2022/01/20 06:47:40;;;;;;;8.27;6.80;;;1.80;99.90;;;;;;5030404;28;20116;-52
2022/01/20 06:50:08;;;;;;;7.50;6.57;;;1.70;99.90;;;;;;5030956;28;20128;-53
2022/01/20 06:52:34;;;;;;;8.27;7.00;;;1.70;99.90;;;;;;5031054;28;20430;-52
2022/01/20 06:55:04;;;;;;;7.90;6.70;;;1.80;99.90;;;;;;5031663;28;20384;-52
2022/01/20 06:57:31;;;;;;;8.10;6.53;;;1.80;99.90;;;;;;5034318;28;20044;-52
2022/01/20 06:59:56;;;;;;;6.97;5.68;;;1.80;99.90;;;;;;5034164;28;20037;-52
2022/01/20 07:02:23;;;;;;;10.02;7.65;;;1.90;99.90;;;;;;5034384;28;20038;-55
2022/01/20 07:04:49;;;;;;;10.55;7.80;;;1.80;99.90;;;;;;5033809;28;20044;-53
2022/01/20 07:07:14;;;;;;;6.35;5.53;;;1.80;99.90;;;;;;5034012;28;20653;-55
2022/01/20 07:09:40;;;;;;;8.13;6.07;;;1.80;99.90;;;;;;5033961;28;20029;-54
2022/01/20 07:12:07;;;;;;;8.13;6.57;;;1.80;99.90;;;;;;5034161;28;20406;-55
2022/01/20 07:14:32;;;;;;;7.20;5.43;;;1.80;99.90;;;;;;5034052;28;20068;-53
2022/01/20 07:16:58;;;;;;;6.63;5.63;;;1.80;99.90;;;;;;5034029;28;20025;-55
2022/01/20 07:19:24;;;;;;;6.60;5.72;;;1.80;99.90;;;;;;5034267;28;20034;-57
2022/01/20 07:21:50;;;;;;;6.13;5.25;;;1.70;99.90;;;;;;5033968;28;20032;-54
2022/01/20 07:24:16;;;;;;;7.38;6.18;;;1.70;99.90;;;;;;5034031;28;20053;-55
2022/01/20 07:26:42;;;;;;;7.72;6.93;;;1.70;99.90;;;;;;5033594;28;20053;-55
2022/01/20 07:29:07;;;;;;;7.25;5.72;;;1.70;99.90;;;;;;5033999;28;20488;-53
2022/01/20 07:31:34;;;;;;;6.93;5.30;;;1.70;99.90;;;;;;5033992;28;20480;-55
2022/01/20 07:34:00;;;;;;;7.00;6.28;;;1.70;99.90;;;;;;5034073;28;20033;-55
2022/01/20 07:36:25;;;;;;;7.75;7.05;;;1.80;99.90;;;;;;5033893;28;20013;-54
2022/01/20 07:38:51;;;;;;;7.55;6.85;;;1.70;99.90;;;;;;5033657;28;20036;-55
2022/01/20 07:41:17;;;;;;;7.18;6.47;;;1.80;99.90;;;;;;5032473;28;20443;-56
2022/01/20 07:43:42;;;;;;;7.85;6.60;;;1.90;99.90;;;;;;5033535;28;20104;-53
2022/01/20 07:46:08;;;;;;;6.75;6.10;;;1.80;99.90;;;;;;5033718;28;20025;-56
2022/01/20 07:48:34;;;;;;;7.07;6.38;;;1.80;99.90;;;;;;5033305;28;20021;-52
2022/01/20 07:51:00;;;;;;;10.38;6.50;;;1.80;99.90;;;;;;5033530;28;20033;-56
2022/01/20 07:53:26;;;;;;;7.85;7.05;;;1.80;99.90;;;;;;5033262;28;20053;-52
2022/01/20 07:55:52;;;;;;;8.15;6.68;;;1.80;99.90;;;;;;5031186;28;20166;-55
2022/01/20 07:58:18;;;;;;;6.38;5.60;;;1.80;99.90;;;;;;5032698;28;20037;-55
2022/01/20 08:00:44;;;;;;;7.90;6.85;;;1.90;99.90;;;;;;5032315;28;20672;-55
2022/01/20 08:03:10;;;;;;;8.68;6.78;;;1.80;99.90;;;;;;5032450;28;20029;-56
2022/01/20 08:05:35;;;;;;;9.13;6.80;;;1.80;99.90;;;;;;5033263;28;20075;-56
2022/01/20 08:08:01;;;;;;;8.63;6.80;;;1.80;99.90;;;;;;5023908;28;20033;-55
2022/01/20 08:10:27;;;;;;;7.65;6.63;;;1.80;99.90;;;;;;5017489;28;20084;-54
2022/01/20 08:12:52;;;;;;;6.45;5.80;;;1.80;99.90;;;;;;5013286;28;20045;-66
2022/01/20 08:15:18;;;;;;;6.72;5.78;;;1.90;99.90;;;;;;5011866;28;20060;-52
2022/01/20 08:17:44;;;;;;;6.35;5.60;;;1.90;99.90;;;;;;5013247;28;20029;-55
2022/01/20 08:20:11;;;;;;;7.22;5.68;;;1.90;99.90;;;;;;5013303;28;20030;-55
2022/01/20 08:22:37;;;;;;;6.13;5.53;;;1.90;99.90;;;;;;5013126;28;20481;-56
2022/01/20 08:25:11;;;;;;;6.82;5.90;;;1.90;99.90;;;;;;5013060;28;20030;-55
2022/01/20 08:27:38;;;;;;;6.10;5.22;;;2.00;99.90;;;;;;5012946;28;20033;-55
2022/01/20 08:30:06;;;;;;;6.45;5.80;;;1.90;99.90;;;;;;5013177;28;20025;-57
2022/01/20 08:32:32;;;;;;;6.13;5.35;;;1.90;99.90;;;;;;5013094;28;20033;-56
2022/01/20 08:34:57;;;;;;;7.47;6.65;;;1.90;99.90;;;;;;5013021;28;20362;-70
2022/01/20 08:37:25;;;;;;;9.35;6.57;;;1.90;99.90;;;;;;5013010;28;20033;-57
2022/01/20 08:39:51;;;;;;;7.30;5.78;;;1.90;99.90;;;;;;5012849;28;20117;-52
2022/01/20 08:42:16;;;;;;;8.63;5.85;;;2.00;99.90;;;;;;5012079;28;20156;-56
2022/01/20 08:44:42;;;;;;;8.52;7.00;;;2.00;99.90;;;;;;5011754;28;20030;-56
2022/01/20 08:47:15;;;;;;;9.25;8.23;;;2.00;99.90;;;;;;5012835;28;20026;-56
2022/01/20 08:49:41;;;;;;;10.05;7.93;;;2.00;99.90;;;;;;5012641;28;20482;-54
2022/01/20 08:52:06;;;;;;;8.20;7.30;;;2.10;99.90;;;;;;5012524;28;20120;-55
2022/01/20 08:54:33;;;;;;;7.75;6.90;;;2.10;99.90;;;;;;5012506;28;20065;-55
2022/01/20 08:56:59;;;;;;;9.10;6.38;;;2.20;99.90;;;;;;5012240;28;20065;-55
2022/01/20 08:59:26;;;;;;;8.13;7.32;;;2.20;99.90;;;;;;5012507;28;20385;-56
2022/01/20 09:01:52;;;;;;;9.20;6.72;;;2.20;99.90;;;;;;5012450;28;20021;-55
2022/01/20 09:04:18;;;;;;;9.23;8.23;;;2.20;99.90;;;;;;5012314;28;20141;-57
2022/01/20 09:06:44;;;;;;;7.15;6.32;;;2.30;99.90;;;;;;5010830;28;20125;-56
2022/01/20 09:09:10;;;;;;;7.75;6.72;;;2.40;99.90;;;;;;5012214;28;20064;-55
2022/01/20 09:11:38;;;;;;;8.38;6.35;;;2.40;99.90;;;;;;5012001;28;20088;-55
2022/01/20 09:16:49;;;;;;;11.95;8.20;;;2.50;99.90;;;;;;5012382;28;20096;-54
2022/01/20 09:19:16;;;;;;;8.60;6.85;;;2.40;99.90;;;;;;5012173;28;20037;-58
2022/01/20 09:21:42;;;;;;;7.75;6.97;;;2.30;99.90;;;;;;5011954;28;20032;-53
2022/01/20 09:24:08;;;;;;;7.82;7.03;;;2.30;99.90;;;;;;5011481;28;20149;-52
2022/01/20 09:26:34;;;;;;;10.55;9.10;;;2.40;99.90;;;;;;5012015;28;20633;-53
2022/01/20 09:29:00;;;;;;;10.20;8.32;;;2.30;99.90;;;;;;5011563;28;20028;-53
2022/01/20 09:31:27;;;;;;;7.57;6.82;;;2.30;99.90;;;;;;5011205;28;20084;-51
2022/01/20 09:33:54;;;;;;;12.88;10.43;;;2.40;99.90;;;;;;5011578;28;20037;-54
2022/01/20 09:36:22;;;;;;;12.02;10.82;;;2.40;99.90;;;;;;5011845;28;20054;-55
2022/01/20 09:38:48;;;;;;;7.43;6.65;;;2.40;99.90;;;;;;5011733;28;20048;-50
2022/01/20 09:41:14;;;;;;;9.10;6.72;;;2.40;99.90;;;;;;5011909;28;20540;-52
2022/01/20 09:43:40;;;;;;;8.82;7.50;;;2.30;99.90;;;;;;5011610;28;20040;-51
2022/01/20 09:46:06;;;;;;;8.70;7.63;;;2.30;99.90;;;;;;5011638;28;20040;-50
2022/01/20 09:48:32;;;;;;;7.70;6.95;;;2.30;99.90;;;;;;5011760;28;20533;-54
2022/01/20 09:51:03;;;;;;;7.53;6.72;;;2.40;99.90;;;;;;5011372;28;20048;-53
2022/01/20 09:53:29;;;;;;;9.77;7.30;;;2.40;99.90;;;;;;5011517;28;20432;-51
2022/01/20 09:55:56;;;;;;;9.80;6.38;;;2.50;99.90;;;;;;5011726;28;20030;-53
2022/01/20 09:58:23;;;;;;;8.65;7.55;;;2.50;99.90;;;;;;5011500;28;20379;-53
2022/01/20 10:00:49;;;;;;;8.68;7.78;;;2.50;99.90;;;;;;5011564;28;20414;-51
2022/01/20 10:03:16;;;;;;;7.22;6.53;;;2.60;99.90;;;;;;5011570;28;20107;-52
2022/01/20 10:05:47;;;;;;;9.43;6.95;;;2.60;99.90;;;;;;5011242;28;20026;-53
2022/01/20 10:08:23;;;;;;;8.90;7.10;;;2.60;99.90;;;;;;5011241;28;20025;-51
2022/01/20 10:10:53;;;;;;;6.45;5.72;;;2.60;99.90;;;;;;5011373;28;20058;-51
2022/01/20 10:13:30;;;;;;;6.85;5.60;;;2.50;99.90;;;;;;5017415;28;20047;-53
2022/01/20 10:15:56;;;;;;;6.53;5.75;;;2.50;99.90;;;;;;5008051;28;20504;-49
2022/01/20 10:18:22;;;;;;;6.05;5.45;;;2.40;99.90;;;;;;5009846;28;20034;-51
2022/01/20 10:21:02;;;;;;;6.55;5.88;;;2.40;99.90;;;;;;5011109;28;20041;-50
2022/01/20 10:23:35;;;;;;;9.85;6.22;;;2.50;99.90;;;;;;5011224;28;20115;-53
2022/01/20 10:26:12;;;;;;;10.65;8.15;;;2.50;99.90;;;;;;5011305;28;20114;-51
2022/01/20 10:28:52;;;;;;;6.50;5.90;;;2.40;99.90;;;;;;5011183;28;20052;-51
2022/01/20 10:31:38;;;;;;;6.03;5.05;;;2.40;99.90;;;;;;5013160;28;20044;-53
2022/01/20 10:34:06;;;;;;;7.57;4.57;;;2.60;99.90;;;;;;5013525;28;20032;-53
2022/01/20 10:36:39;;;;;;;6.40;5.70;;;2.70;99.90;;;;;;5013794;28;20030;-51
2022/01/20 10:39:05;;;;;;;5.93;5.32;;;2.70;99.90;;;;;;5013508;28;20641;-50
2022/01/20 10:41:37;;;;;;;7.82;5.70;;;2.80;99.90;;;;;;5015268;28;20520;-51
2022/01/20 10:44:02;;;;;;;7.55;4.72;;;2.80;99.90;;;;;;5015069;28;20481;-51
2022/01/20 10:46:28;;;;;;;6.70;5.03;;;2.80;99.90;;;;;;5015007;28;20038;-51
2022/01/20 10:48:59;;;;;;;5.25;4.75;;;2.80;99.90;;;;;;5014312;28;20562;-52
2022/01/20 10:51:25;;;;;;;6.95;5.15;;;2.80;99.90;;;;;;5014919;28;20385;-52
2022/01/20 10:54:04;;;;;;;7.07;5.57;;;2.60;99.90;;;;;;5014848;28;20029;-55
2022/01/20 10:56:30;;;;;;;6.07;5.57;;;2.70;99.90;;;;;;5013053;28;20057;-51
2022/01/20 10:59:06;;;;;;;5.72;5.15;;;2.40;99.90;;;;;;5014636;28;20421;-51
2022/01/20 11:01:32;;;;;;;7.35;4.88;;;2.20;99.90;;;;;;5014105;28;20109;-53
2022/01/20 11:03:58;;;;;;;3.83;3.45;;;2.20;99.90;;;;;;5014338;28;20713;-52
2022/01/20 11:06:24;;;;;;;4.88;4.30;;;2.10;99.90;;;;;;5014727;28;20137;-52
2022/01/20 11:08:51;;;;;;;7.97;4.47;;;2.10;99.90;;;;;;5014453;28;20050;-53
2022/01/20 11:11:17;;;;;;;7.20;5.45;;;1.90;99.90;;;;;;5014533;28;20029;-52
2022/01/20 11:13:43;;;;;;;6.18;5.38;;;2.00;99.90;;;;;;5014444;28;20117;-51
2022/01/20 11:16:09;;;;;;;4.90;4.38;;;2.10;99.90;;;;;;5014359;28;20080;-51
2022/01/20 11:18:37;;;;;;;4.10;3.80;;;2.50;99.90;;;;;;5014311;28;20030;-53
2022/01/20 11:21:02;;;;;;;4.80;4.40;;;2.70;99.90;;;;;;5014436;28;20470;-53
2022/01/20 11:23:42;;;;;;;5.25;4.75;;;2.80;99.90;;;;;;5014259;28;20109;-51
2022/01/20 11:26:08;;;;;;;5.55;4.30;;;3.10;99.90;;;;;;5014271;28;20040;-52
2022/01/20 11:28:34;;;;;;;6.38;4.05;;;3.50;99.90;;;;;;5014333;28;20030;-52
2022/01/20 11:31:06;;;;;;;5.20;4.70;;;3.70;99.90;;;;;;5014185;28;20033;-51
2022/01/20 11:33:40;;;;;;;5.05;4.53;;;3.50;99.90;;;;;;5012714;28;20042;-50
2022/01/20 11:36:24;;;;;;;4.63;4.10;;;3.40;99.90;;;;;;5014148;28;20022;-51
2022/01/20 11:38:53;;;;;;;5.55;4.85;;;3.20;99.90;;;;;;5014083;28;20112;-52
2022/01/20 11:41:21;;;;;;;4.60;4.20;;;3.00;99.90;;;;;;5012592;28;20033;-52
2022/01/20 11:43:49;;;;;;;4.75;4.38;;;3.00;99.90;;;;;;5013776;28;20033;-54
2022/01/20 11:46:19;;;;;;;4.82;4.35;;;3.10;99.90;;;;;;5012573;28;20029;-54
2022/01/20 11:49:09;;;;;;;9.60;7.13;;;3.10;99.90;;;;;;5013693;28;20584;-51
2022/01/20 11:51:57;;;;;;;39.97;22.02;;;3.00;99.90;;;;;;5013752;28;20032;-50
2022/01/20 11:54:30;;;;;;;4.68;4.28;;;3.00;99.90;;;;;;5013939;28;20025;-51
2022/01/20 11:57:08;;;;;;;5.18;4.70;;;2.90;99.90;;;;;;5013646;28;20041;-52
2022/01/20 11:59:49;;;;;;;12.30;7.30;;;2.90;99.90;;;;;;5013649;28;20628;-52
2022/01/20 12:02:32;;;;;;;5.70;4.45;;;2.80;99.90;;;;;;5013443;28;20045;-51
2022/01/20 12:04:59;;;;;;;4.40;4.00;;;3.00;99.90;;;;;;5013240;28;20457;-53
2022/01/20 12:07:31;;;;;;;4.18;3.78;;;3.00;99.90;;;;;;5013356;28;20029;-52
2022/01/20 12:10:15;;;;;;;5.20;3.67;;;3.10;99.90;;;;;;5013231;28;20026;-52
2022/01/20 12:12:41;;;;;;;;;;;3.10;99.90;;;;;;5013130;28;20283;-54
2022/01/20 12:15:20;;;;;;;5.82;3.80;;;3.10;99.90;;;;;;5013051;28;19997;-52
2022/01/20 12:17:55;;;;;;;9.00;4.22;;;3.30;99.90;;;;;;5017903;28;20469;-53
2022/01/20 12:20:23;;;;;;;4.55;4.15;;;3.20;99.90;;;;;;5021746;28;20042;-51
2022/01/20 12:22:50;;;;;;;5.05;4.22;;;3.20;99.90;;;;;;5022318;28;20552;-55
2022/01/20 12:25:19;;;;;;;4.47;3.58;;;3.30;99.90;;;;;;5022270;28;20116;-51
2022/01/20 12:27:46;;;;;;;6.68;3.95;;;3.40;99.90;;;;;;5020749;28;20083;-53
2022/01/20 12:30:25;;;;;;;6.63;4.53;;;3.40;99.90;;;;;;5022440;28;21135;-51
2022/01/20 12:33:03;;;;;;;4.22;3.83;;;3.50;99.90;;;;;;5012038;28;20034;-52
2022/01/20 12:35:56;;;;;;;5.32;4.40;;;3.60;99.90;;;;;;5021627;28;20022;-51
2022/01/20 12:38:36;;;;;;;8.75;4.22;;;3.50;99.90;;;;;;5021031;28;20045;-54
2022/01/20 12:41:04;;;;;;;7.28;4.97;;;3.40;99.90;;;;;;5021192;28;20121;-51
2022/01/20 12:43:40;;;;;;;4.88;4.00;;;3.30;99.90;;;;;;5010358;28;20030;-51
2022/01/20 12:46:08;;;;;;;4.03;3.63;;;3.40;99.90;;;;;;5021195;28;20069;-55
2022/01/20 12:48:34;;;;;;;7.00;4.20;;;3.50;99.90;;;;;;5021603;28;20377;-53
2022/01/20 12:51:02;;;;;;;5.95;4.05;;;3.50;99.90;;;;;;5022069;28;20036;-51
2022/01/20 12:53:37;;;;;;;9.10;6.28;;;3.40;99.90;;;;;;5020528;28;20112;-54
2022/01/20 12:56:05;;;;;;;5.95;4.63;;;3.40;99.90;;;;;;5021984;28;20060;-55
2022/01/20 12:58:31;;;;;;;7.40;5.60;;;3.50;99.90;;;;;;5021639;28;20037;-54
2022/01/20 13:01:02;;;;;;;5.88;5.10;;;3.60;99.90;;;;;;5021217;28;20456;-52
2022/01/20 13:03:42;;;;;;;3.97;3.58;;;3.50;99.90;;;;;;5020731;28;20084;-54
2022/01/20 13:06:12;;;;;;;5.68;4.07;;;3.60;99.90;;;;;;5007613;28;20225;-53
2022/01/20 13:08:41;;;;;;;6.10;5.43;;;3.60;99.90;;;;;;5020141;28;20033;-52
2022/01/20 13:11:11;;;;;;;5.03;4.20;;;3.60;99.90;;;;;;5017808;28;20483;-52
2022/01/20 13:13:37;;;;;;;3.95;3.55;;;3.70;99.90;;;;;;5020311;28;20060;-54
2022/01/20 13:16:15;;;;;;;4.72;3.83;;;3.70;99.90;;;;;;5020110;28;20146;-54
2022/01/20 13:18:59;;;;;;;7.65;3.95;;;3.70;99.90;;;;;;5020137;28;20550;-54
2022/01/20 13:21:53;;;;;;;4.70;3.95;;;3.60;99.90;;;;;;5020969;28;20026;-54
2022/01/20 13:24:25;;;;;;;5.78;4.18;;;3.60;99.90;;;;;;5020530;28;20052;-52
2022/01/20 13:26:53;;;;;;;5.32;4.07;;;3.60;99.90;;;;;;5020800;28;20048;-55
2022/01/20 13:29:20;;;;;;;6.78;4.80;;;3.60;99.90;;;;;;5021205;28;20346;-52
2022/01/20 13:31:49;;;;;;;3.88;3.20;;;3.60;99.90;;;;;;5025127;28;20499;-54
2022/01/20 13:34:18;;;;;;;3.90;3.55;;;3.60;99.90;;;;;;5030716;28;20017;-52
2022/01/20 13:36:50;;;;;;;4.70;3.58;;;3.60;99.90;;;;;;5031010;28;20481;-52
2022/01/20 13:39:37;;;;;;;4.72;3.30;;;3.50;99.90;;;;;;5031759;28;20025;-51
2022/01/20 13:42:22;;;;;;;5.68;3.90;;;3.50;99.90;;;;;;5031338;28;20025;-51
2022/01/20 13:45:16;;;;;;;6.07;4.45;;;3.60;99.90;;;;;;5031269;28;20036;-51
2022/01/20 13:47:59;;;;;;;;;;;3.50;99.90;;;;;;5031676;28;20021;-53
2022/01/20 13:50:26;;;;;;;5.47;4.40;;;3.60;99.90;;;;;;5031516;28;19905;-51
2022/01/20 13:52:53;;;;;;;5.13;3.75;;;3.60;99.90;;;;;;5031347;28;20432;-51
2022/01/20 13:55:21;;;;;;;3.40;3.10;;;3.50;99.90;;;;;;5031582;28;20101;-53
2022/01/20 13:57:47;;;;;;;4.32;3.92;;;3.50;99.90;;;;;;5029612;28;20412;-53
2022/01/20 14:00:14;;;;;;;4.47;3.70;;;3.20;99.90;;;;;;5031533;28;20030;-54
2022/01/20 14:02:41;;;;;;;12.75;4.25;;;3.10;99.90;;;;;;5031240;28;20014;-50